CT1EBQ-13 Weather Reports


Display with metric or nautical units.
time (UTC)temp
F
wind
direction
speed
MPH
gust
MPH
rain 1hr
in
rain 24hr
in
rain mn
in
humidity
%
barometer
mb
20210726051608 67 312 10.0 15.0 0.00 0.00 0.00 81 1017.0
20210726045557 67 312 10.0 15.0 0.00 0.00 0.00 81 1017.0
20210726043545 67 312 10.0 15.0 0.00 0.00 0.00 81 1017.0
20210726041534 67 312 10.0 15.0 0.00 0.00 0.00 80 1017.0
20210726035522 67 312 10.0 15.0 0.00 0.00 0.00 79 1017.0
20210726033511 67 312 10.0 15.0 0.00 0.00 0.00 79 1017.0
20210726031459 67 312 10.0 15.0 0.00 0.00 0.00 78 1017.0
20210726025446 67 312 10.0 15.0 0.00 0.00 0.00 78 1017.0
20210726023433 67 312 10.0 15.0 0.00 0.00 0.00 78 1017.0
20210726021422 67 312 10.0 15.0 0.00 0.00 0.00 78 1017.0
20210726015411 67 312 10.0 15.0 0.00 0.00 0.00 78 1017.0
20210726013359 67 312 10.0 15.0 0.00 0.00 0.00 77 1017.0
20210726011348 67 312 10.0 15.0 0.00 0.00 0.00 78 1017.0
20210726005337 68 312 10.0 15.0 0.00 0.00 0.00 77 1017.0
20210726003325 69 312 10.0 15.0 0.00 0.00 0.00 77 1017.0
20210726001314 69 312 10.0 15.0 0.00 0.00 0.00 77 1018.0
20210725235305 69 312 10.0 15.0 0.00 0.00 0.00 77 1018.0
20210725233251 69 312 10.0 15.0 0.00 0.00 0.00 77 1018.0
20210725231240 69 312 10.0 15.0 0.00 0.00 0.00 77 1018.0
20210725225229 69 312 10.0 15.0 0.00 0.00 0.00 76 1018.0
20210725223218 69 312 10.0 15.0 0.00 0.00 0.00 76 1018.0
20210725221207 70 312 10.0 15.0 0.00 0.00 0.00 76 1017.0
20210725215155 70 312 10.0 15.0 0.00 0.00 0.00 76 1017.0
20210725213144 70 312 10.0 15.0 0.00 0.00 0.00 75 1017.0
20210725211133 70 312 10.0 15.0 0.00 0.00 0.00 75 1017.0
20210725205121 70 312 10.0 15.0 0.00 0.00 0.00 75 1017.0
20210725203109 70 312 10.0 15.0 0.00 0.00 0.00 74 1017.0
20210725201058 70 312 10.0 15.0 0.00 0.00 0.00 74 1016.0
20210725195047 70 312 10.0 15.0 0.00 0.00 0.00 74 1016.0
20210725193035 71 312 10.0 15.0 0.00 0.00 0.00 75 1016.0
20210725191023 71 312 10.0 15.0 0.00 0.00 0.00 74 1016.0
20210725185011 72 312 10.0 15.0 0.00 0.00 0.00 72 1016.0
20210725182959 72 312 10.0 15.0 0.00 0.00 0.00 70 1016.0
20210725180947 72 312 10.0 15.0 0.00 0.00 0.00 71 1016.0
20210725174936 73 312 10.0 15.0 0.00 0.00 0.00 71 1016.0
20210725172923 73 312 10.0 15.0 0.00 0.00 0.00 69 1016.0
20210725170912 73 312 10.0 15.0 0.00 0.00 0.00 69 1016.0
20210725164900 74 339 1.0 11.0 0.00 0.00 0.00 70 1016.0
20210725162847 74 339 1.0 11.0 0.00 0.00 0.00 70 1016.0
20210725160835 74 339 1.0 11.0 0.00 0.00 0.00 70 1017.0
20210725154822 74 339 1.0 11.0 0.00 0.00 0.00 70 1017.0
20210725152810 74 339 1.0 11.0 0.00 0.00 0.00 71 1017.0
20210725150758 75 279 8.0 15.0 0.00 0.00 0.00 70 1016.0
20210725144747 74 279 8.0 15.0 0.00 0.00 0.00 72 1016.0
20210725142727 74 279 8.0 15.0 0.00 0.00 0.00 70 1017.0
20210725140715 74 279 8.0 15.0 0.00 0.00 0.00 73 1016.0
20210725134702 73 279 8.0 15.0 0.00 0.00 0.00 71 1017.0
20210725132650 72 279 8.0 15.0 0.00 0.00 0.00 71 1017.0
20210725130639 73 279 8.0 15.0 0.00 0.00 0.00 69 1017.0
20210725124627 75 260 12.0 0.0 0.00 0.00 0.00 78 1015.0
20210725122616 75 307 8.0 13.0 0.00 0.00 0.00 81 1016.0
20210725120604 74 307 8.0 13.0 0.00 0.00 0.00 81 1016.0
20210725114553 74 307 8.0 13.0 0.00 0.00 0.00 82 1016.0
20210725112541 72 307 8.0 13.0 0.00 0.00 0.00 79 1017.0
20210725110530 73 307 8.0 13.0 0.00 0.00 0.00 82 1016.0
20210725104519 73 307 8.0 13.0 0.00 0.00 0.00 84 1016.0
20210725102506 72 307 8.0 13.0 0.00 0.00 0.00 81 1017.0
20210725100454 71 307 8.0 13.0 0.00 0.00 0.00 81 1017.0
20210725094442 70 307 8.0 13.0 0.00 0.00 0.00 82 1017.0
20210725092430 69 307 8.0 13.0 0.00 0.00 0.00 84 1017.0
20210725090418 69 307 8.0 13.0 0.00 0.00 0.00 84 1017.0
20210725084407 69 307 8.0 13.0 0.00 0.00 0.00 83 1017.0
20210725082355 69 307 8.0 13.0 0.00 0.00 0.00 81 1017.0
20210725080344 69 307 8.0 13.0 0.00 0.00 0.00 82 1017.0
20210725074327 68 307 8.0 13.0 0.00 0.00 0.00 83 1016.0
20210725072310 68 307 8.0 13.0 0.00 0.00 0.00 83 1016.0
20210725070258 67 307 8.0 13.0 0.00 0.00 0.00 83 1016.0
20210725064244 67 307 8.0 13.0 0.00 0.00 0.00 93 1015.0
20210725062231 66 15 5.0 13.0 0.00 0.00 0.00 79 1017.0
20210725060217 66 15 5.0 13.0 0.00 0.00 0.00 78 1017.0
20210725054203 66 15 5.0 13.0 0.00 0.00 0.00 76 1017.0